Time;durP1;ratioP1;P1;durP2;ratioP2;P2;SDS_P1;SDS_P2;PMS_P1;PMS_P2;Temp;Humidity;BMP_temperature;BMP_pressure;BME280_temperature;BME280_humidity;BME280_pressure;Samples;Min_cycle;Max_cycle;Signal;HPM_P1;HPM_P2
2022/12/01 00:01:16;;;;;;;8.68;3.47;;;;;;;7.28;73.51;99924.06;5093186;28;20488;-79
2022/12/01 00:03:42;;;;;;;7.40;3.50;;;;;;;7.69;73.98;99984.97;5075025;28;20104;-79
2022/12/01 00:06:19;;;;;;;7.25;3.70;;;;;;;7.67;73.98;99992.16;5093153;28;20036;-79
2022/12/01 00:11:33;;;;;;;6.13;3.50;;;;;;;7.52;74.36;99973.44;5093069;28;20116;-79
2022/12/01 00:13:58;;;;;;;5.00;3.00;;;;;;;7.32;74.40;99935.09;5092820;28;20032;-79
2022/12/01 00:16:24;;;;;;;6.82;3.47;;;;;;;7.44;74.67;99962.84;5074532;28;20021;-79
2022/12/01 00:18:50;;;;;;;7.25;3.80;;;;;;;7.55;74.65;99980.22;5092734;28;20039;-79
2022/12/01 00:21:18;;;;;;;3.65;3.10;;;;;;;7.15;74.09;99907.00;5092767;28;20032;-78
2022/12/01 00:23:46;;;;;;;5.22;3.45;;;;;;;7.56;74.56;99987.13;5074730;28;20020;-79
2022/12/01 00:26:11;;;;;;;5.78;4.05;;;;;;;7.20;74.70;99918.72;5092564;28;20420;-79
2022/12/01 00:28:37;;;;;;;6.47;3.53;;;;;;;7.14;74.34;99910.63;5092748;28;20032;-79
2022/12/01 00:31:12;;;;;;;8.45;3.78;;;;;;;6.97;74.50;99885.97;5093153;28;20444;-79
2022/12/01 00:33:38;;;;;;;6.00;3.75;;;;;;;6.71;74.31;99822.84;5092648;28;20035;-79
2022/12/01 00:36:05;;;;;;;10.07;3.88;;;;;;;7.01;74.45;99884.72;5092355;28;20095;-78
2022/12/01 00:38:31;;;;;;;7.32;4.28;;;;;;;7.20;74.28;99918.72;5074266;28;20058;-79
2022/12/01 00:40:56;;;;;;;6.45;4.32;;;;;;;7.36;74.36;99943.50;5092707;28;20487;-78
2022/12/01 00:43:23;;;;;;;5.78;3.60;;;;;;;7.16;74.32;99892.91;5074348;28;20032;-79
2022/12/01 00:45:48;;;;;;;5.72;4.15;;;;;;;7.31;74.69;99931.66;5092689;28;20032;-78
2022/12/01 00:48:14;;;;;;;10.45;4.45;;;;;;;7.51;74.31;99955.19;5074140;28;20093;-79
2022/12/01 00:50:40;;;;;;;4.85;3.78;;;;;;;7.38;74.37;99958.16;5092557;28;20024;-78
2022/12/01 00:53:05;;;;;;;4.35;3.95;;;;;;;7.09;74.75;99916.31;5092361;28;20024;-78
2022/12/01 00:55:30;;;;;;;6.32;4.18;;;;;;;6.73;74.82;99848.94;5092262;28;20107;-78
2022/12/01 00:57:56;;;;;;;6.20;4.40;;;;;;;7.18;74.64;99925.09;5092326;28;21281;-78
2022/12/01 01:00:21;;;;;;;5.05;4.07;;;;;;;6.86;74.62;99875.66;5092105;28;20020;-78
2022/12/01 01:02:47;;;;;;;7.60;4.95;;;;;;;6.67;75.19;99829.34;5094416;28;20108;-80
2022/12/01 01:05:12;;;;;;;5.72;4.30;;;;;;;7.29;74.61;99932.78;5095385;28;20481;-80
2022/12/01 01:07:37;;;;;;;4.93;4.43;;;;;;;7.10;74.82;99883.81;5073503;28;20031;-79
2022/12/01 01:10:03;;;;;;;5.88;4.20;;;;;;;6.93;74.92;99895.94;5091816;28;20507;-79
2022/12/01 01:12:29;;;;;;;5.82;3.83;;;;;;;6.83;74.49;99871.53;5073737;28;20071;-80
2022/12/01 01:14:54;;;;;;;7.28;4.45;;;;;;;7.38;74.77;99950.28;5091729;28;20077;-80
2022/12/01 01:17:20;;;;;;;5.97;4.43;;;;;;;7.29;74.71;99919.63;5091739;28;20484;-79
2022/12/01 01:19:45;;;;;;;6.68;4.57;;;;;;;6.76;74.51;99838.16;5073534;28;20043;-79
2022/12/01 01:22:11;;;;;;;5.25;3.90;;;;;;;7.50;74.88;99949.13;5073617;28;20028;-79
2022/12/01 01:24:36;;;;;;;6.93;4.45;;;;;;;7.57;74.37;99952.81;5092023;28;20545;-80
2022/12/01 01:27:02;;;;;;;5.97;4.78;;;;;;;7.49;74.65;99944.00;5092777;28;20020;-79
2022/12/01 01:29:28;;;;;;;9.30;5.13;;;;;;;7.23;74.74;99913.19;5091920;28;20036;-80
2022/12/01 01:31:53;;;;;;;6.15;4.38;;;;;;;7.54;74.46;99947.03;5091769;28;20489;-79
2022/12/01 01:34:19;;;;;;;6.15;4.53;;;;;;;7.16;74.44;99885.84;5074149;28;20020;-79
2022/12/01 01:36:44;;;;;;;8.32;5.18;;;;;;;7.24;74.64;99900.88;5073738;28;20515;-79
2022/12/01 01:39:09;;;;;;;7.35;5.25;;;;;;;7.03;74.88;99863.56;5073423;28;20028;-79
2022/12/01 01:41:35;;;;;;;8.52;6.15;;;;;;;6.83;74.61;99812.97;5073396;28;20102;-79
2022/12/01 01:44:01;;;;;;;6.70;5.10;;;;;;;7.23;74.88;99870.34;5091535;28;20031;-79
2022/12/01 01:46:32;;;;;;;6.85;5.00;;;;;;;7.57;75.04;99926.53;5091306;28;20161;-79
2022/12/01 01:49:00;;;;;;;7.43;5.90;;;;;;;7.40;74.98;99902.84;5074855;28;20492;-79
2022/12/01 01:51:30;;;;;;;6.38;5.07;;;;;;;7.53;74.84;99911.22;5095658;28;20032;-79
2022/12/01 01:54:01;;;;;;;6.35;5.43;;;;;;;7.21;74.45;99865.22;5095718;28;20026;-79
2022/12/01 01:56:27;;;;;;;7.38;5.22;;;;;;;7.30;74.83;99874.03;5095189;28;20024;-79
2022/12/01 01:58:53;;;;;;;8.75;5.40;;;;;;;7.18;74.74;99848.94;5095079;28;20563;-79
2022/12/01 02:01:18;;;;;;;7.28;5.78;;;;;;;7.34;74.41;99876.19;5095141;28;20099;-79
2022/12/01 02:03:45;;;;;;;9.75;6.00;;;;;;;6.94;74.90;99821.47;5076901;28;20027;-79
2022/12/01 02:06:10;;;;;;;8.45;5.32;;;;;;;6.63;74.27;99760.59;5094986;28;20027;-79
2022/12/01 02:08:37;;;;;;;7.57;5.30;;;;;;;7.15;74.50;99870.25;5095043;28;20044;-79
2022/12/01 02:11:47;;;;;;;10.45;6.32;;;;;;;7.40;74.81;99940.44;5095477;28;20028;-80
2022/12/01 02:14:30;;;;;;;7.28;5.55;;;;;;;7.52;74.59;99912.19;5095244;28;20028;-79
2022/12/01 02:17:11;;;;;;;7.43;5.53;;;;;;;7.53;75.14;99913.84;5095284;28;20039;-79
2022/12/01 02:19:42;;;;;;;6.43;5.25;;;;;;;7.58;74.95;99915.03;5076796;28;20028;-78
2022/12/01 02:22:41;;;;;;;8.20;5.95;;;;;;;7.58;74.49;99908.97;5077064;28;20408;-79
2022/12/01 02:25:33;;;;;;;6.53;5.50;;;;;;;7.52;75.01;99907.75;5094950;28;20028;-80
2022/12/01 02:28:20;;;;;;;8.73;5.60;;;;;;;7.56;74.47;99895.16;5094941;28;20036;-80
2022/12/01 02:31:02;;;;;;;8.63;5.82;;;;;;;6.71;74.79;99761.69;5076560;28;20058;-78
2022/12/01 02:33:50;;;;;;;7.40;5.32;;;;;;;7.12;74.38;99832.00;5094805;28;20467;-77
2022/12/01 02:36:18;;;;;;;8.23;5.80;;;;;;;7.54;74.37;99897.09;5076737;28;20020;-80
2022/12/01 02:38:48;;;;;;;6.93;5.88;;;;;;;7.49;74.63;99905.44;5094444;28;20133;-79
2022/12/01 02:41:18;;;;;;;10.95;5.40;;;;;;;7.51;74.38;99905.28;5094352;28;20405;-79
2022/12/01 02:44:13;;;;;;;8.07;5.32;;;;;;;7.50;74.55;99896.56;5076189;28;20028;-80
2022/12/01 02:46:53;;;;;;;8.40;5.40;;;;;;;7.57;74.43;99912.56;5059480;28;20481;-79
2022/12/01 02:49:24;;;;;;;7.03;4.85;;;;;;;7.56;74.62;99926.69;5094841;28;20027;-79
2022/12/01 02:51:53;;;;;;;6.85;4.78;;;;;;;7.29;74.30;99878.44;5076354;28;20028;-79
2022/12/01 02:54:19;;;;;;;7.55;4.93;;;;;;;7.16;74.51;99853.53;5094901;28;20416;-79
2022/12/01 02:56:45;;;;;;;6.78;4.70;;;;;;;6.89;74.90;99843.88;5076746;28;20020;-79
2022/12/01 02:59:12;;;;;;;6.30;5.10;;;;;;;7.01;74.98;99840.91;5094338;28;20027;-79
2022/12/01 03:01:56;;;;;;;8.02;5.70;;;;;;;7.50;74.31;99891.31;5092945;28;20030;-80
2022/12/01 03:04:40;;;;;;;8.73;5.82;;;;;;;7.50;74.30;99901.00;5075966;28;20415;-79
2022/12/01 03:07:34;;;;;;;6.57;4.82;;;;;;;7.54;74.19;99905.81;5094077;28;20416;-80
2022/12/01 03:10:11;;;;;;;5.05;4.55;;;;;;;7.60;74.55;99896.50;5093825;28;20135;-80
2022/12/01 03:12:58;;;;;;;6.85;5.07;;;;;;;7.61;74.09;99901.59;5075882;28;20488;-80
2022/12/01 03:15:50;;;;;;;6.75;5.00;;;;;;;7.58;73.87;99894.03;5075672;28;20089;-79
2022/12/01 03:18:48;;;;;;;8.02;5.35;;;;;;;7.56;74.44;99900.41;5093691;28;20031;-80
2022/12/01 03:21:24;;;;;;;5.38;4.50;;;;;;;7.22;74.15;99866.06;5074839;28;20095;-80
2022/12/01 03:24:11;;;;;;;6.55;4.55;;;;;;;7.46;73.99;99908.34;5093958;28;20028;-80
2022/12/01 03:26:40;;;;;;;6.13;4.40;;;;;;;7.26;74.66;99872.66;5094140;28;20028;-80
2022/12/01 03:29:15;;;;;;;5.70;4.13;;;;;;;7.14;74.88;99853.66;5075589;28;20028;-79
2022/12/01 03:31:46;;;;;;;6.15;4.38;;;;;;;7.49;74.12;99928.25;5093709;28;20034;-79
2022/12/01 03:34:16;;;;;;;6.13;4.00;;;;;;;7.28;74.35;99862.84;5093791;28;20125;-79
2022/12/01 03:36:47;;;;;;;6.50;4.28;;;;;;;7.05;74.23;99816.97;5075399;28;20468;-80
2022/12/01 03:39:18;;;;;;;6.20;4.30;;;;;;;6.99;73.88;99813.16;5093436;28;20466;-79
2022/12/01 03:41:52;;;;;;;5.38;4.28;;;;;;;7.06;73.75;99837.00;5093301;28;20031;-80
2022/12/01 03:44:25;;;;;;;4.13;3.72;;;;;;;7.24;74.29;99879.88;5075018;28;20028;-80
2022/12/01 03:47:00;;;;;;;4.88;4.30;;;;;;;7.50;73.98;99920.22;5093216;28;20059;-80
2022/12/01 03:49:26;;;;;;;5.47;4.85;;;;;;;7.25;74.38;99871.00;5093382;28;20024;-80
2022/12/01 03:51:58;;;;;;;5.03;4.13;;;;;;;7.52;74.13;99907.75;5074945;28;20408;-80
2022/12/01 03:54:44;;;;;;;4.22;3.40;;;;;;;7.46;73.93;99907.53;5093248;28;20408;-79
2022/12/01 03:57:16;;;;;;;4.65;3.70;;;;;;;6.66;73.69;99783.06;5093135;28;20024;-79
2022/12/01 03:59:42;;;;;;;;;;;;;;;7.33;74.45;99906.06;5093782;28;20028;-79
2022/12/01 04:02:08;;;;;;;5.22;3.85;;;;;;;6.11;73.94;99693.94;5092797;28;19904;-80
2022/12/01 04:04:34;;;;;;;5.25;4.10;;;;;;;6.71;74.07;99780.88;5074688;28;20024;-80
2022/12/01 04:06:59;;;;;;;3.67;3.22;;;;;;;7.24;74.06;99864.09;5074679;28;20556;-80
2022/12/01 04:09:25;;;;;;;4.50;3.53;;;;;;;6.70;73.76;99805.47;5092619;28;20131;-80
2022/12/01 04:14:34;;;;;;;4.78;3.67;;;;;;;7.13;74.21;99866.94;5093010;28;20047;-79
2022/12/01 04:16:59;;;;;;;5.07;3.92;;;;;;;7.01;74.15;99863.69;5074557;28;20455;-79
2022/12/01 04:19:24;;;;;;;4.30;3.30;;;;;;;6.62;73.72;99789.59;5092681;28;20496;-79
2022/12/01 04:21:50;;;;;;;4.07;3.05;;;;;;;6.91;74.29;99837.50;5092593;28;20573;-79
2022/12/01 04:24:15;;;;;;;5.70;3.75;;;;;;;6.62;74.47;99813.19;5074701;28;20020;-79
2022/12/01 04:26:42;;;;;;;3.30;3.00;;;;;;;6.42;74.08;99767.88;5092696;28;20035;-80
2022/12/01 04:29:09;;;;;;;3.35;3.05;;;;;;;7.29;74.57;99907.34;5094982;28;20028;-80
2022/12/01 04:31:35;;;;;;;3.88;3.47;;;;;;;7.27;74.19;99922.41;5102868;28;20030;-80
2022/12/01 04:34:00;;;;;;;3.55;3.10;;;;;;;6.90;74.15;99867.34;5094141;28;20158;-79
2022/12/01 04:36:29;;;;;;;3.70;3.30;;;;;;;7.24;74.47;99921.88;5092513;28;20099;-79
2022/12/01 04:38:55;;;;;;;4.25;3.53;;;;;;;6.05;74.37;99733.84;5092141;28;20111;-79
2022/12/01 04:41:20;;;;;;;3.92;3.50;;;;;;;7.07;74.39;99920.88;5074089;28;20076;-79
2022/12/01 04:43:45;;;;;;;3.85;3.22;;;;;;;6.39;74.06;99786.53;5092285;28;20154;-79
2022/12/01 04:46:11;;;;;;;5.93;3.88;;;;;;;7.20;74.40;99923.16;5092086;28;20169;-79
2022/12/01 04:48:38;;;;;;;4.05;3.15;;;;;;;6.83;74.40;99871.53;5092042;28;20020;-79
2022/12/01 04:51:05;;;;;;;3.25;2.97;;;;;;;7.00;74.30;99902.25;5092210;28;20034;-79
2022/12/01 04:53:31;;;;;;;5.13;3.45;;;;;;;7.13;74.45;99927.34;5091925;28;20415;-79
2022/12/01 04:55:59;;;;;;;3.40;3.10;;;;;;;7.16;74.34;99927.88;5092230;28;20105;-79
2022/12/01 04:58:25;;;;;;;3.67;3.22;;;;;;;7.10;74.35;99930.25;5073765;28;20028;-79
2022/12/01 05:00:51;;;;;;;3.63;2.92;;;;;;;6.59;74.41;99868.59;5092054;28;20031;-79
2022/12/01 05:03:17;;;;;;;3.28;2.97;;;;;;;6.47;74.20;99843.50;5092003;28;20462;-79
2022/12/01 05:05:43;;;;;;;3.85;3.05;;;;;;;6.31;74.83;99799.53;5073771;28;20036;-79
2022/12/01 05:08:08;;;;;;;3.88;3.15;;;;;;;6.93;74.24;99890.69;5073421;28;20096;-79
2022/12/01 05:10:37;;;;;;;4.95;4.10;;;;;;;7.15;74.67;99930.66;5091577;28;20064;-79
2022/12/01 05:13:04;;;;;;;4.00;3.60;;;;;;;5.97;74.31;99747.66;5073448;28;20067;-79
2022/12/01 05:15:30;;;;;;;4.20;3.60;;;;;;;7.07;74.45;99933.19;5091610;28;20020;-79
2022/12/01 05:17:55;;;;;;;4.20;3.80;;;;;;;6.43;74.84;99839.53;5091658;28;20016;-79
2022/12/01 05:23:08;;;;;;;4.75;3.70;;;;;;;7.00;74.11;99925.88;5090946;28;20034;-79
2022/12/01 05:25:33;;;;;;;5.45;3.75;;;;;;;6.22;74.65;99811.72;5091606;28;20020;-79
2022/12/01 05:27:59;;;;;;;13.05;7.57;;;;;;;7.03;74.62;99937.91;5091546;28;20097;-80
2022/12/01 05:30:25;;;;;;;5.28;3.90;;;;;;;6.53;74.59;99867.38;5091461;28;20026;-79
2022/12/01 05:32:50;;;;;;;5.97;4.10;;;;;;;6.72;74.29;99876.16;5091662;28;20032;-80
2022/12/01 05:35:16;;;;;;;5.68;4.55;;;;;;;5.60;74.16;99717.94;5091545;28;20020;-80
2022/12/01 05:37:41;;;;;;;4.68;3.83;;;;;;;6.19;74.20;99785.78;5091932;28;20024;-79
2022/12/01 05:40:07;;;;;;;4.50;4.10;;;;;;;6.79;74.57;99900.84;5073689;28;20091;-79
2022/12/01 05:42:33;;;;;;;5.00;4.45;;;;;;;6.76;74.45;99880.13;5091423;28;20020;-79
2022/12/01 05:44:58;;;;;;;7.10;4.63;;;;;;;6.73;74.77;99897.00;5091566;28;20071;-79
2022/12/01 05:47:24;;;;;;;5.55;4.13;;;;;;;6.39;74.68;99820.63;5091712;28;20044;-79
2022/12/01 05:49:49;;;;;;;8.18;5.25;;;;;;;6.12;74.16;99783.88;5091653;28;20393;-79
2022/12/01 05:52:15;;;;;;;7.25;5.35;;;;;;;6.84;74.41;99919.59;5090626;28;20066;-80
2022/12/01 05:54:40;;;;;;;6.47;4.80;;;;;;;6.93;74.62;99919.56;5061174;28;20170;-79
2022/12/01 05:57:06;;;;;;;7.18;5.03;;;;;;;6.18;74.79;99791.19;5071921;28;20034;-80
2022/12/01 05:59:31;;;;;;;9.30;6.07;;;;;;;6.85;74.50;99895.00;5074049;28;20040;-79
2022/12/01 06:01:57;;;;;;;7.18;4.80;;;;;;;6.79;74.17;99909.53;5071208;28;20024;-80
2022/12/01 06:04:23;;;;;;;7.43;5.60;;;;;;;7.12;74.48;99934.38;5052705;28;20074;-79
2022/12/01 06:06:49;;;;;;;7.82;6.85;;;;;;;6.59;74.13;99868.59;5071016;28;20029;-80
2022/12/01 06:09:14;;;;;;;8.32;5.40;;;;;;;6.48;74.23;99846.00;5070899;28;20052;-80
2022/12/01 06:11:39;;;;;;;7.07;5.15;;;;;;;6.69;74.81;99880.72;5052914;28;20032;-80
2022/12/01 06:14:05;;;;;;;6.07;5.40;;;;;;;6.55;74.99;99867.22;5071181;28;20107;-79
2022/12/01 06:16:30;;;;;;;6.32;5.00;;;;;;;6.50;74.79;99843.22;5071170;28;20023;-79
2022/12/01 06:18:56;;;;;;;8.75;7.03;;;;;;;7.09;74.47;99949.59;5071033;28;20481;-80
2022/12/01 06:21:22;;;;;;;10.27;7.65;;;;;;;6.68;74.28;99892.16;5052708;28;20433;-79
2022/12/01 06:23:48;;;;;;;7.05;6.28;;;;;;;6.52;74.50;99904.22;5070804;28;20036;-79
2022/12/01 06:26:13;;;;;;;7.55;6.10;;;;;;;6.07;74.89;99791.38;5065313;28;20024;-80
2022/12/01 06:28:38;;;;;;;8.27;6.75;;;;;;;6.39;75.02;99857.34;5066065;28;20032;-79
2022/12/01 06:31:04;;;;;;;7.10;5.53;;;;;;;6.73;74.63;99896.19;5041394;28;20032;-79
2022/12/01 06:33:30;;;;;;;6.68;5.72;;;;;;;6.35;74.46;99904.00;5036214;28;20033;-80
2022/12/01 06:36:00;;;;;;;4.63;4.07;;;;;;;6.74;74.31;99931.94;5070539;28;20063;-79
2022/12/01 06:38:26;;;;;;;5.60;5.03;;;;;;;6.71;74.15;99930.44;5068141;28;20048;-79
2022/12/01 06:40:51;;;;;;;6.53;4.82;;;;;;;6.06;74.63;99829.84;5065827;28;20693;-79
2022/12/01 06:43:16;;;;;;;5.22;4.35;;;;;;;6.19;74.64;99867.06;5055428;28;20119;-79
2022/12/01 06:45:42;;;;;;;6.65;5.03;;;;;;;6.50;74.89;99928.00;5069798;28;20103;-79
2022/12/01 06:48:08;;;;;;;6.60;5.00;;;;;;;6.59;74.56;99937.63;5071825;28;20033;-79
2022/12/01 06:50:33;;;;;;;5.18;4.68;;;;;;;5.59;74.34;99781.75;5055868;28;20024;-79
2022/12/01 06:52:59;;;;;;;6.78;5.22;;;;;;;6.16;74.35;99830.66;5072270;28;20021;-79
2022/12/01 06:55:24;;;;;;;6.13;5.40;;;;;;;6.51;74.60;99902.59;5074134;28;20035;-80
2022/12/01 06:57:49;;;;;;;6.72;4.57;;;;;;;6.46;74.51;99881.19;5071198;28;20449;-82
2022/12/01 07:00:15;;;;;;;7.75;4.28;;;;;;;6.85;74.23;99958.84;5071870;28;20425;-79
2022/12/01 07:02:41;;;;;;;5.63;4.70;;;;;;;6.49;74.50;99904.53;5069756;28;20428;-80
2022/12/01 07:05:07;;;;;;;5.60;4.32;;;;;;;6.80;73.89;99941.88;5056539;28;20421;-81
2022/12/01 07:07:35;;;;;;;5.28;4.60;;;;;;;6.53;74.62;99911.13;5071588;28;20033;-79
2022/12/01 07:10:01;;;;;;;4.60;4.13;;;;;;;6.67;74.36;99942.16;5056537;28;20406;-79
2022/12/01 07:12:30;;;;;;;5.78;5.00;;;;;;;6.86;73.83;99973.59;5068389;28;20040;-79
2022/12/01 07:14:56;;;;;;;7.70;6.97;;;;;;;6.45;74.18;99892.66;5061990;28;20066;-79
2022/12/01 07:17:22;;;;;;;6.35;5.75;;;;;;;6.81;74.34;99960.09;5052633;28;20107;-79
2022/12/01 07:19:48;;;;;;;6.18;5.57;;;;;;;6.36;74.35;99900.41;5041230;28;20550;-79
2022/12/01 07:22:14;;;;;;;4.78;4.28;;;;;;;6.79;74.25;99963.81;5052227;28;20123;-79
2022/12/01 07:24:40;;;;;;;6.28;5.68;;;;;;;6.16;73.97;99879.63;5068611;28;20107;-79
2022/12/01 07:27:05;;;;;;;5.55;4.95;;;;;;;6.76;74.42;99969.38;5062288;28;20120;-80
2022/12/01 07:29:31;;;;;;;5.97;4.82;;;;;;;6.59;74.38;99932.38;5065895;28;20016;-80
2022/12/01 07:31:56;;;;;;;5.45;4.78;;;;;;;5.85;74.07;99805.56;5071886;28;20055;-79
2022/12/01 07:34:22;;;;;;;5.35;4.85;;;;;;;6.82;74.08;99951.25;5068971;28;20530;-79
2022/12/01 07:36:47;;;;;;;7.05;4.68;;;;;;;6.14;74.04;99861.41;5058970;28;20029;-79
2022/12/01 07:39:12;;;;;;;5.65;4.72;;;;;;;6.28;74.20;99883.75;5054693;28;20029;-80
2022/12/01 07:41:38;;;;;;;4.85;4.35;;;;;;;6.52;73.72;99914.72;5066302;28;20142;-79
2022/12/01 07:44:03;;;;;;;4.53;4.07;;;;;;;6.61;74.34;99925.19;5052580;28;20047;-79
2022/12/01 07:46:29;;;;;;;5.07;4.05;;;;;;;6.15;73.81;99849.97;5056853;28;20089;-79
2022/12/01 07:48:55;;;;;;;4.68;4.25;;;;;;;6.11;74.10;99837.28;5071734;28;20028;-79
2022/12/01 07:51:22;;;;;;;4.70;4.30;;;;;;;6.75;74.37;99947.53;5069746;28;20024;-79
2022/12/01 07:53:49;;;;;;;5.85;4.68;;;;;;;6.25;73.66;99876.16;5068969;28;20016;-80
2022/12/01 07:56:15;;;;;;;6.18;4.97;;;;;;;5.91;73.87;99816.34;5064820;28;20030;-79
2022/12/01 07:58:41;;;;;;;6.05;5.05;;;;;;;5.90;73.69;99830.41;5069615;28;20481;-79
2022/12/01 08:01:15;;;;;;;5.32;4.53;;;;;;;6.76;74.21;99951.81;5063981;28;20063;-79
2022/12/01 08:03:41;;;;;;;5.63;5.00;;;;;;;6.29;73.92;99898.50;5070123;28;20037;-79
2022/12/01 08:06:07;;;;;;;5.88;5.13;;;;;;;6.33;73.98;99874.47;5054849;28;20036;-79
2022/12/01 08:08:34;;;;;;;6.05;5.40;;;;;;;6.50;73.78;99920.13;5071822;28;20063;-79
2022/12/01 08:11:03;;;;;;;6.40;4.85;;;;;;;6.68;73.54;99921.03;5071186;28;20052;-80
2022/12/01 08:13:28;;;;;;;6.18;4.78;;;;;;;5.65;73.80;99773.34;5071818;28;20040;-79
2022/12/01 08:15:54;;;;;;;6.40;4.75;;;;;;;6.22;74.12;99845.81;5070610;28;20028;-79
2022/12/01 08:18:20;;;;;;;6.63;5.50;;;;;;;6.08;73.65;99821.84;5054420;28;20511;-79
2022/12/01 08:20:45;;;;;;;5.80;5.07;;;;;;;6.43;73.82;99894.59;5050719;28;20033;-80
2022/12/01 08:23:10;;;;;;;6.50;5.65;;;;;;;6.66;73.78;99922.97;5067323;28;20417;-79
2022/12/01 08:25:36;;;;;;;5.13;4.55;;;;;;;6.28;73.89;99860.97;5068900;28;20028;-79
2022/12/01 08:28:02;;;;;;;6.55;5.72;;;;;;;5.85;73.88;99810.81;5067757;28;20101;-79
2022/12/01 08:30:27;;;;;;;6.53;5.45;;;;;;;5.99;74.03;99865.47;5067307;28;20028;-79
2022/12/01 08:32:54;;;;;;;9.95;7.90;;;;;;;6.77;74.41;99942.97;5064308;28;20064;-80
2022/12/01 08:35:20;;;;;;;8.13;6.85;;;;;;;6.45;74.37;99903.97;5068334;28;20036;-79
2022/12/01 08:37:45;;;;;;;11.15;8.75;;;;;;;6.58;74.20;99940.38;5069482;28;20077;-79
2022/12/01 08:40:11;;;;;;;10.82;9.18;;;;;;;6.69;74.18;99935.00;5053882;28;20164;-79
2022/12/01 08:42:37;;;;;;;6.97;6.10;;;;;;;6.05;74.62;99830.81;5066611;28;20028;-80
2022/12/01 08:45:03;;;;;;;4.82;4.20;;;;;;;6.42;74.11;99899.03;5047134;28;20045;-80
2022/12/01 08:47:28;;;;;;;5.90;5.05;;;;;;;6.77;74.70;99955.28;5068185;28;20048;-80
2022/12/01 08:49:54;;;;;;;9.20;5.45;;;;;;;6.51;74.19;99908.66;5071956;28;20027;-80
2022/12/01 08:52:19;;;;;;;6.97;6.03;;;;;;;6.57;74.35;99897.59;5051653;28;20500;-79
2022/12/01 08:54:45;;;;;;;5.65;4.55;;;;;;;6.22;74.18;99860.72;5066090;28;20125;-80
2022/12/01 08:57:10;;;;;;;8.65;5.35;;;;;;;6.83;73.89;99939.78;5067141;28;20043;-79
2022/12/01 08:59:36;;;;;;;8.43;5.93;;;;;;;6.62;74.17;99913.72;5064812;28;20077;-78
2022/12/01 09:02:01;;;;;;;9.18;7.65;;;;;;;6.15;74.04;99833.41;5049583;28;20417;-79
2022/12/01 09:04:27;;;;;;;7.35;6.18;;;;;;;6.33;74.60;99855.28;5062619;28;20036;-79
2022/12/01 09:06:54;;;;;;;10.45;7.63;;;;;;;6.67;74.31;99877.38;5061489;28;20036;-79
2022/12/01 09:09:27;;;;;;;12.20;7.97;;;;;;;6.87;74.06;99920.16;5068402;28;20048;-79
2022/12/01 09:11:53;;;;;;;11.32;8.00;;;;;;;6.49;74.04;99855.50;5062583;28;20532;-79
2022/12/01 09:14:20;;;;;;;9.68;6.68;;;;;;;6.16;73.99;99819.34;5057624;28;20428;-80
2022/12/01 09:16:48;;;;;;;8.23;6.00;;;;;;;6.25;74.38;99803.56;5068332;28;20052;-79
2022/12/01 09:19:14;;;;;;;12.25;8.35;;;;;;;6.39;74.00;99807.50;5052336;28;20071;-80
2022/12/01 09:21:42;;;;;;;11.45;6.78;;;;;;;6.75;73.91;99876.69;5049166;28;20028;-79
2022/12/01 09:24:10;;;;;;;10.27;7.65;;;;;;;6.89;73.71;99907.69;5069039;28;20025;-79
2022/12/01 09:26:36;;;;;;;10.98;6.70;;;;;;;6.51;74.41;99847.50;5058433;28;20461;-79
2022/12/01 09:29:05;;;;;;;6.82;5.00;;;;;;;6.66;74.12;99878.34;5063495;28;20063;-79
2022/12/01 09:31:31;;;;;;;5.95;4.70;;;;;;;6.35;74.90;99843.69;5052590;28;20089;-80
2022/12/01 09:33:59;;;;;;;6.15;5.10;;;;;;;6.43;74.55;99861.34;5069796;28;20028;-79
2022/12/01 09:36:25;;;;;;;7.28;4.93;;;;;;;6.47;74.54;99852.22;5068664;28;20421;-80
2022/12/01 09:38:50;;;;;;;10.15;5.70;;;;;;;6.49;74.59;99847.66;5064833;28;20115;-79
2022/12/01 09:41:42;;;;;;;10.27;7.57;;;;;;;6.80;74.57;99898.06;5070853;28;20162;-80
2022/12/01 09:44:19;;;;;;;8.02;6.22;;;;;;;6.11;74.34;99769.97;5032430;28;20036;-79
2022/12/01 09:46:53;;;;;;;9.35;6.97;;;;;;;6.84;74.21;99891.56;5066335;28;20024;-79
2022/12/01 09:49:40;;;;;;;11.13;7.32;;;;;;;6.42;74.75;99830.00;5058997;28;20027;-79
2022/12/01 09:52:11;;;;;;;10.48;8.15;;;;;;;6.91;74.73;99891.81;5070581;28;20499;-79
2022/12/01 09:54:37;;;;;;;10.15;8.23;;;;;;;5.81;74.52;99720.34;5049321;28;20049;-78
2022/12/01 09:57:02;;;;;;;10.57;8.40;;;;;;;6.69;74.38;99893.84;5066899;28;20085;-79
2022/12/01 09:59:34;;;;;;;6.70;5.88;;;;;;;5.75;74.32;99721.75;5048940;28;20060;-80
2022/12/01 10:02:21;;;;;;;7.35;5.72;;;;;;;6.40;74.68;99829.31;5051229;28;20032;-80
2022/12/01 10:04:50;;;;;;;8.32;6.28;;;;;;;5.40;74.34;99646.47;5042513;28;20033;-79
2022/12/01 10:07:51;;;;;;;9.50;6.53;;;;;;;6.90;74.38;99877.84;5054720;28;20117;-80
2022/12/01 10:10:34;;;;;;;7.68;5.88;;;;;;;6.74;74.78;99859.28;5059138;28;20437;-80
2022/12/01 10:13:00;;;;;;;8.82;5.63;;;;;;;6.31;74.07;99784.63;5056438;28;20426;-79
2022/12/01 10:15:54;;;;;;;7.15;5.90;;;;;;;6.97;74.57;99896.47;5056698;28;20029;-80
2022/12/01 10:18:57;;;;;;;9.02;5.47;;;;;;;6.99;74.00;99884.03;5047091;28;20043;-80
2022/12/01 10:21:44;;;;;;;8.43;6.47;;;;;;;7.09;73.73;99876.09;5072676;28;20028;-80
2022/12/01 10:24:46;;;;;;;8.85;6.68;;;;;;;7.06;73.85;99885.09;5054074;28;20048;-80
2022/12/01 10:27:30;;;;;;;;;;;;;;;6.93;74.74;99877.56;5067291;28;20349;-80
2022/12/01 10:30:04;;;;;;;9.25;8.27;;;;;;;6.26;74.09;99765.06;5074432;28;19908;-80
2022/12/01 10:32:44;;;;;;;6.90;6.15;;;;;;;6.16;74.58;99736.28;5065379;28;20036;-80
2022/12/01 10:35:22;;;;;;;8.57;6.38;;;;;;;6.66;73.95;99823.25;5069079;28;20477;-80
2022/12/01 10:37:54;;;;;;;11.25;8.40;;;;;;;6.66;74.10;99801.44;5056076;28;20025;-80
2022/12/01 10:40:19;;;;;;;10.25;8.38;;;;;;;5.74;73.36;99642.34;5074058;28;20035;-80
2022/12/01 10:42:47;;;;;;;7.35;6.20;;;;;;;7.15;73.91;99870.25;5069157;28;20025;-80
2022/12/01 10:45:29;;;;;;;9.75;6.53;;;;;;;6.76;73.63;99807.50;5070377;28;20029;-80
2022/12/01 10:48:19;;;;;;;10.90;7.60;;;;;;;7.16;74.00;99866.66;5068867;28;20120;-80
2022/12/01 10:50:52;;;;;;;10.80;7.53;;;;;;;6.49;73.96;99741.91;5070930;28;20060;-79
2022/12/01 10:53:32;;;;;;;9.10;7.80;;;;;;;7.16;73.90;99854.34;5054788;28;20032;-80
2022/12/01 10:56:19;;;;;;;17.15;9.85;;;;;;;7.15;74.12;99852.69;5073482;28;20013;-80
2022/12/01 10:58:49;;;;;;;14.27;9.30;;;;;;;7.10;74.18;99852.31;5073136;28;20022;-80
2022/12/01 11:01:18;;;;;;;21.17;14.43;;;;;;;6.82;73.97;99806.06;5073326;28;20054;-80
2022/12/01 11:03:49;;;;;;;18.90;11.15;;;;;;;6.46;73.70;99747.44;5062489;28;20028;-80
2022/12/01 11:06:21;;;;;;;16.98;10.50;;;;;;;6.75;73.73;99803.22;5039235;28;20093;-81
2022/12/01 11:08:52;;;;;;;13.30;8.60;;;;;;;7.06;73.75;99864.09;5058449;28;20144;-80
2022/12/01 11:11:34;;;;;;;10.00;7.32;;;;;;;7.15;74.15;99844.81;5060574;28;20024;-79
2022/12/01 11:14:03;;;;;;;9.05;7.38;;;;;;;6.36;73.81;99732.59;5067758;28;20112;-80
2022/12/01 11:16:40;;;;;;;8.00;7.20;;;;;;;7.00;74.09;99851.56;5064114;28;20039;-79
2022/12/01 11:19:18;;;;;;;8.82;6.97;;;;;;;6.98;73.97;99849.06;5066991;28;20033;-79
2022/12/01 11:21:56;;;;;;;7.43;5.97;;;;;;;6.56;73.79;99775.25;5054058;28;20096;-79
2022/12/01 11:24:41;;;;;;;7.43;6.28;;;;;;;6.29;73.83;99731.50;5054663;28;20067;-79
2022/12/01 11:27:19;;;;;;;5.72;5.00;;;;;;;6.93;74.87;99840.81;5080437;28;20025;-79
2022/12/01 11:29:49;;;;;;;9.75;8.68;;;;;;;6.29;74.71;99746.41;5069032;28;20059;-79
2022/12/01 11:32:14;;;;;;;9.77;8.07;;;;;;;6.94;74.74;99844.28;5071614;28;20125;-79
2022/12/01 11:34:41;;;;;;;11.70;10.02;;;;;;;6.47;74.21;99764.81;5072091;28;20521;-79
2022/12/01 11:37:14;;;;;;;8.45;7.55;;;;;;;6.68;74.36;99808.19;5071489;28;20017;-79
2022/12/01 11:39:42;;;;;;;8.90;7.22;;;;;;;5.90;74.07;99674.97;5064434;28;20397;-80
2022/12/01 11:42:27;;;;;;;5.80;5.22;;;;;;;6.86;74.53;99845.00;5066195;28;20104;-79
2022/12/01 11:44:55;;;;;;;7.28;5.10;;;;;;;6.84;74.94;99844.31;5068866;28;20025;-80
2022/12/01 11:47:24;;;;;;;7.68;6.32;;;;;;;6.80;74.13;99816.72;5062470;28;20021;-80
2022/12/01 11:49:59;;;;;;;8.30;5.97;;;;;;;6.92;74.64;99836.53;5061273;28;20365;-79
2022/12/01 11:52:28;;;;;;;7.32;6.40;;;;;;;6.93;74.62;99832.13;5068862;28;20028;-79
2022/12/01 11:55:19;;;;;;;10.80;8.27;;;;;;;6.91;74.92;99834.88;5072262;28;20020;-80
2022/12/01 11:57:48;;;;;;;8.18;7.38;;;;;;;6.49;74.86;99778.63;5071059;28;20456;-80
2022/12/01 12:00:19;;;;;;;12.48;8.90;;;;;;;6.91;74.70;99836.69;5066745;28;20028;-80
2022/12/01 12:03:12;;;;;;;7.57;6.70;;;;;;;6.55;74.66;99785.91;5052719;28;20035;-79